Time;durP1;ratioP1;P1;durP2;ratioP2;P2;SDS_P1;SDS_P2;PMS_P1;PMS_P2;Temp;Humidity;BMP_temperature;BMP_pressure;BME280_temperature;BME280_humidity;BME280_pressure;Samples;Min_cycle;Max_cycle;Signal;HPM_P1;HPM_P2
2022/08/29 00:02:08;;;;;;;3.65;2.15;;;13.20;93.10;;;;;;4896802;29;20028;-64
2022/08/29 00:04:34;;;;;;;4.18;2.47;;;13.20;93.20;;;;;;4897105;29;20251;-65
2022/08/29 00:07:00;;;;;;;4.28;2.40;;;13.20;93.30;;;;;;4897114;29;20025;-64
2022/08/29 00:09:26;;;;;;;5.15;1.83;;;13.10;93.40;;;;;;4896534;29;20136;-63
2022/08/29 00:11:51;;;;;;;3.50;1.85;;;13.10;93.40;;;;;;4895017;29;20024;-65
2022/08/29 00:14:17;;;;;;;3.38;2.10;;;13.00;93.60;;;;;;4897116;29;20064;-66
2022/08/29 00:16:43;;;;;;;4.72;2.20;;;13.00;93.60;;;;;;4894357;29;20032;-64
2022/08/29 00:19:08;;;;;;;5.45;1.90;;;13.00;93.90;;;;;;4895929;29;20025;-62
2022/08/29 00:21:34;;;;;;;4.50;2.00;;;12.90;93.90;;;;;;4894515;29;20120;-63
2022/08/29 00:23:59;;;;;;;3.97;2.03;;;12.90;94.00;;;;;;4895809;29;20381;-62
2022/08/29 00:26:25;;;;;;;5.82;2.30;;;12.90;94.00;;;;;;4876804;29;20052;-63
2022/08/29 00:28:50;;;;;;;5.55;2.00;;;12.80;94.00;;;;;;4891317;29;20096;-65
2022/08/29 00:31:16;;;;;;;3.22;2.17;;;12.80;94.10;;;;;;4894338;29;20032;-62
2022/08/29 00:33:41;;;;;;;4.07;1.75;;;12.70;94.10;;;;;;4910692;29;20040;-65
2022/08/29 00:36:08;;;;;;;3.25;1.67;;;12.70;94.00;;;;;;4896437;29;20028;-66
2022/08/29 00:38:35;;;;;;;4.15;1.85;;;12.60;94.10;;;;;;4896511;29;20024;-66
2022/08/29 00:41:00;;;;;;;4.05;1.70;;;12.60;94.30;;;;;;4896950;29;20049;-65
2022/08/29 00:43:29;;;;;;;3.70;2.08;;;12.60;94.40;;;;;;4910429;29;20033;-66
2022/08/29 00:46:25;;;;;;;3.60;1.70;;;12.50;94.40;;;;;;4897196;29;20037;-65
2022/08/29 00:48:57;;;;;;;3.78;1.60;;;12.50;94.40;;;;;;4893436;29;20055;-66
2022/08/29 00:51:23;;;;;;;3.08;1.50;;;12.50;94.40;;;;;;4895469;29;20029;-66
2022/08/29 00:53:57;;;;;;;3.40;1.77;;;12.40;94.50;;;;;;4896309;29;20382;-67
2022/08/29 00:56:24;;;;;;;2.75;1.88;;;12.40;94.60;;;;;;4895803;29;20040;-67
2022/08/29 00:59:01;;;;;;;4.38;1.67;;;12.40;94.70;;;;;;4895672;29;20021;-67
2022/08/29 01:01:27;;;;;;;3.40;1.80;;;12.40;94.70;;;;;;4911128;29;20047;-65
2022/08/29 01:03:53;;;;;;;2.83;1.63;;;12.30;95.00;;;;;;4896123;29;20024;-66
2022/08/29 01:06:21;;;;;;;3.70;1.80;;;12.30;94.90;;;;;;4896442;29;20154;-66
2022/08/29 01:08:47;;;;;;;2.58;1.42;;;12.20;94.90;;;;;;4895796;29;20501;-64
2022/08/29 01:14:01;;;;;;;3.60;1.70;;;12.10;95.00;;;;;;4878065;29;20040;-67
2022/08/29 01:16:28;;;;;;;3.53;1.40;;;12.10;95.10;;;;;;4876751;29;20115;-68
2022/08/29 01:19:02;;;;;;;2.78;1.50;;;12.00;95.20;;;;;;4876669;29;20065;-64
2022/08/29 01:21:46;;;;;;;4.53;1.80;;;12.00;95.20;;;;;;4876207;29;20497;-65
2022/08/29 01:24:15;;;;;;;3.45;2.00;;;12.00;95.40;;;;;;4877512;29;20053;-68
2022/08/29 01:26:45;;;;;;;3.83;1.75;;;12.00;95.40;;;;;;4876940;29;20041;-68
2022/08/29 01:29:12;;;;;;;3.58;1.83;;;11.90;95.30;;;;;;4876413;29;20096;-68
2022/08/29 01:31:44;;;;;;;3.58;1.70;;;11.90;95.40;;;;;;4877169;29;20040;-68
2022/08/29 01:34:12;;;;;;;3.38;1.85;;;11.90;95.40;;;;;;4877555;29;20024;-68
2022/08/29 01:36:46;;;;;;;3.53;1.83;;;12.00;95.50;;;;;;4875786;29;20649;-68
2022/08/29 01:39:12;;;;;;;2.95;1.60;;;12.00;95.40;;;;;;4891105;29;20029;-66
2022/08/29 01:41:38;;;;;;;3.33;1.95;;;12.10;95.40;;;;;;4877072;29;20475;-63
2022/08/29 01:44:12;;;;;;;4.82;1.92;;;12.00;95.30;;;;;;4890912;29;20021;-62
2022/08/29 01:46:38;;;;;;;4.38;1.88;;;12.00;95.30;;;;;;4876674;29;20048;-66
2022/08/29 01:49:07;;;;;;;5.30;2.00;;;11.90;95.20;;;;;;4877340;29;20029;-63
2022/08/29 01:51:34;;;;;;;4.43;2.00;;;11.90;95.20;;;;;;4877199;29;20045;-63
2022/08/29 01:54:00;;;;;;;3.35;1.98;;;11.80;95.40;;;;;;4876725;29;20036;-63
2022/08/29 01:56:30;;;;;;;3.28;1.67;;;11.90;95.50;;;;;;4891958;29;20025;-61
2022/08/29 01:58:57;;;;;;;4.07;2.15;;;11.90;95.50;;;;;;4877521;29;20479;-63
2022/08/29 02:01:27;;;;;;;5.85;2.47;;;11.90;95.40;;;;;;4876761;29;20025;-62
2022/08/29 02:03:53;;;;;;;4.22;2.15;;;11.90;95.40;;;;;;4895553;29;20478;-62
2022/08/29 02:06:18;;;;;;;6.97;2.22;;;11.90;95.40;;;;;;4910366;29;20036;-61
2022/08/29 02:08:45;;;;;;;6.10;2.17;;;11.90;95.40;;;;;;4894936;29;20051;-64
2022/08/29 02:11:12;;;;;;;3.95;1.95;;;11.90;95.50;;;;;;4895996;29;20024;-63
2022/08/29 02:13:51;;;;;;;5.07;2.30;;;11.90;95.60;;;;;;4895404;29;20100;-61
2022/08/29 02:16:16;;;;;;;6.97;2.17;;;11.90;95.60;;;;;;4895299;29;20039;-66
2022/08/29 02:18:42;;;;;;;4.70;1.98;;;11.80;95.50;;;;;;4895739;29;20028;-63
2022/08/29 02:21:11;;;;;;;6.05;2.42;;;11.80;95.50;;;;;;4895323;29;20037;-61
2022/08/29 02:23:37;;;;;;;3.72;2.22;;;11.80;95.50;;;;;;4895474;29;20044;-61
2022/08/29 02:26:04;;;;;;;3.72;1.98;;;11.80;95.50;;;;;;4895764;29;20036;-62
2022/08/29 02:28:31;;;;;;;2.92;1.90;;;11.80;95.50;;;;;;4894705;29;20031;-62
2022/08/29 02:30:57;;;;;;;3.85;2.20;;;11.80;95.50;;;;;;4895796;29;20028;-62
2022/08/29 02:33:24;;;;;;;4.45;2.20;;;11.80;95.50;;;;;;4895714;29;20024;-62
2022/08/29 02:35:50;;;;;;;4.82;2.00;;;11.80;95.50;;;;;;4894613;29;20036;-61
2022/08/29 02:38:16;;;;;;;3.10;1.98;;;11.80;95.60;;;;;;4898946;29;20047;-60
2022/08/29 02:40:43;;;;;;;6.68;2.17;;;11.80;95.70;;;;;;4898567;29;20470;-63
2022/08/29 02:43:08;;;;;;;4.00;2.20;;;11.80;95.90;;;;;;4912871;29;20028;-62
2022/08/29 02:45:39;;;;;;;3.63;2.08;;;11.80;95.90;;;;;;4912968;29;20040;-62
2022/08/29 02:48:06;;;;;;;2.97;1.83;;;11.80;95.90;;;;;;4898700;29;20029;-61
2022/08/29 02:50:32;;;;;;;6.13;2.63;;;11.80;95.90;;;;;;4896771;29;20430;-66
2022/08/29 02:52:57;;;;;;;6.57;2.30;;;11.70;95.90;;;;;;4898169;29;20032;-65
2022/08/29 02:55:23;;;;;;;3.55;2.05;;;11.70;95.90;;;;;;4898558;29;20202;-61
2022/08/29 02:57:50;;;;;;;4.38;2.28;;;11.60;95.80;;;;;;4897766;29;20116;-67
2022/08/29 03:00:20;;;;;;;3.00;2.03;;;11.60;95.90;;;;;;4911902;29;20255;-66
2022/08/29 03:02:46;;;;;;;6.72;2.17;;;11.50;96.00;;;;;;4898266;29;20032;-65
2022/08/29 03:05:13;;;;;;;3.38;1.83;;;11.50;96.00;;;;;;4912467;29;20032;-63
2022/08/29 03:07:39;;;;;;;7.18;2.47;;;11.50;96.10;;;;;;4898380;29;20017;-62
2022/08/29 03:10:06;;;;;;;5.25;2.70;;;11.60;96.30;;;;;;4897067;29;20132;-66
2022/08/29 03:12:32;;;;;;;5.25;2.08;;;11.60;96.20;;;;;;4897476;29;20411;-66
2022/08/29 03:14:58;;;;;;;4.30;1.98;;;11.70;96.20;;;;;;4898282;29;20027;-67
2022/08/29 03:17:23;;;;;;;10.13;2.38;;;11.70;96.00;;;;;;4911765;29;20028;-67
2022/08/29 03:19:49;;;;;;;4.38;2.05;;;11.80;95.90;;;;;;4898147;29;20029;-67
2022/08/29 03:22:15;;;;;;;4.07;2.35;;;11.80;95.90;;;;;;4898497;29;20067;-67
2022/08/29 03:24:40;;;;;;;5.35;2.47;;;11.80;95.90;;;;;;4896718;29;20121;-66
2022/08/29 03:27:06;;;;;;;4.65;2.20;;;11.90;96.00;;;;;;4898025;29;20040;-66
2022/08/29 03:29:32;;;;;;;4.05;2.10;;;11.90;95.90;;;;;;4897615;29;20112;-66
2022/08/29 03:31:58;;;;;;;3.15;1.75;;;12.00;95.80;;;;;;4897687;29;20028;-67
2022/08/29 03:34:26;;;;;;;2.88;1.60;;;12.00;95.70;;;;;;4897981;29;20089;-62
2022/08/29 03:36:52;;;;;;;4.57;2.28;;;12.00;95.60;;;;;;4896813;29;20025;-66
2022/08/29 03:39:17;;;;;;;4.47;2.67;;;12.00;95.60;;;;;;4895915;29;20393;-64
2022/08/29 03:41:43;;;;;;;5.35;2.10;;;12.10;95.50;;;;;;4897467;29;20036;-65
2022/08/29 03:44:09;;;;;;;4.40;2.00;;;12.00;95.40;;;;;;4897719;29;20055;-67
2022/08/29 03:46:36;;;;;;;3.92;1.63;;;12.00;95.40;;;;;;4896181;29;20394;-67
2022/08/29 03:49:02;;;;;;;4.10;2.00;;;12.00;95.40;;;;;;4911474;29;20371;-62
2022/08/29 03:51:30;;;;;;;3.05;1.90;;;12.10;95.40;;;;;;4897426;29;20064;-62
2022/08/29 03:53:56;;;;;;;3.33;2.08;;;12.10;95.50;;;;;;4896584;29;20517;-64
2022/08/29 03:56:22;;;;;;;6.53;2.33;;;12.10;95.40;;;;;;4897535;29;20017;-64
2022/08/29 03:58:47;;;;;;;5.65;2.38;;;12.10;95.60;;;;;;4896365;29;20041;-66
2022/08/29 04:01:15;;;;;;;5.57;2.00;;;12.10;95.70;;;;;;4896956;29;20355;-62
2022/08/29 04:03:41;;;;;;;4.32;2.00;;;12.10;95.60;;;;;;4896050;29;20033;-67
2022/08/29 04:06:06;;;;;;;2.95;1.92;;;12.10;95.70;;;;;;4897408;29;20379;-67
2022/08/29 04:08:33;;;;;;;3.60;1.98;;;12.20;95.70;;;;;;4896030;29;20052;-61
2022/08/29 04:10:59;;;;;;;6.03;2.17;;;12.20;95.60;;;;;;4896097;29;20409;-62
2022/08/29 04:13:24;;;;;;;3.72;2.15;;;12.20;95.60;;;;;;4897379;29;20039;-67
2022/08/29 04:15:50;;;;;;;4.25;2.28;;;12.30;95.50;;;;;;4895610;29;20099;-64
2022/08/29 04:18:16;;;;;;;6.05;2.42;;;12.20;95.40;;;;;;4897369;29;20033;-62
2022/08/29 04:20:43;;;;;;;4.65;2.28;;;12.20;95.40;;;;;;4896384;29;20048;-67
2022/08/29 04:23:11;;;;;;;4.28;2.30;;;12.30;95.40;;;;;;4897552;29;20044;-67
2022/08/29 04:25:38;;;;;;;7.35;2.58;;;12.30;95.30;;;;;;4896341;29;20041;-65
2022/08/29 04:28:09;;;;;;;5.85;2.75;;;12.30;95.30;;;;;;4896232;29;20025;-63
2022/08/29 04:30:36;;;;;;;5.82;2.47;;;12.30;95.30;;;;;;4895907;29;20027;-66
2022/08/29 04:33:02;;;;;;;4.35;2.45;;;12.30;95.20;;;;;;4896951;29;20079;-63
2022/08/29 04:35:29;;;;;;;5.20;2.42;;;12.30;95.20;;;;;;4895971;29;20032;-62
2022/08/29 04:37:55;;;;;;;6.78;2.47;;;12.40;95.20;;;;;;4896979;29;20028;-63
2022/08/29 04:40:21;;;;;;;5.93;2.70;;;12.40;95.10;;;;;;4895424;29;20067;-63
2022/08/29 04:42:48;;;;;;;8.48;2.67;;;12.50;95.40;;;;;;4895157;29;20076;-60
2022/08/29 04:45:16;;;;;;;8.35;2.67;;;12.60;95.10;;;;;;4883144;29;20144;-67
2022/08/29 04:47:43;;;;;;;6.07;2.80;;;12.60;95.00;;;;;;4877252;29;20036;-60
2022/08/29 04:50:11;;;;;;;4.72;2.75;;;12.70;94.80;;;;;;4877058;29;20101;-61
2022/08/29 04:52:37;;;;;;;7.22;2.35;;;12.80;94.70;;;;;;4877437;29;20025;-61
2022/08/29 04:55:05;;;;;;;4.70;2.25;;;12.90;94.60;;;;;;4877449;29;20021;-60
2022/08/29 04:57:30;;;;;;;5.50;2.50;;;12.90;94.50;;;;;;4876316;29;20056;-62
2022/08/29 05:00:00;;;;;;;5.45;2.78;;;13.00;94.50;;;;;;4889510;29;20481;-62
2022/08/29 05:02:27;;;;;;;6.90;3.22;;;13.00;94.40;;;;;;4896555;29;20087;-62
2022/08/29 05:04:55;;;;;;;4.65;2.50;;;13.10;94.30;;;;;;4894470;29;20037;-65
2022/08/29 05:07:22;;;;;;;6.03;2.90;;;13.10;94.30;;;;;;4896428;29;20040;-63
2022/08/29 05:09:49;;;;;;;5.45;2.35;;;13.10;94.30;;;;;;4889653;29;20079;-63
2022/08/29 05:12:15;;;;;;;6.55;2.58;;;13.10;94.10;;;;;;4896302;29;20029;-64
2022/08/29 05:14:41;;;;;;;6.10;2.38;;;13.20;94.10;;;;;;4896040;29;20020;-65
2022/08/29 05:17:06;;;;;;;7.65;2.80;;;13.30;93.90;;;;;;4895765;29;20115;-64
2022/08/29 05:19:32;;;;;;;6.93;2.80;;;13.30;93.80;;;;;;4895021;29;20043;-66
2022/08/29 05:21:58;;;;;;;5.78;2.97;;;13.30;94.00;;;;;;4895031;29;20052;-62
2022/08/29 05:24:24;;;;;;;9.23;2.88;;;13.40;93.60;;;;;;4894119;29;20036;-67
2022/08/29 05:26:51;;;;;;;6.60;2.55;;;13.40;93.50;;;;;;4894679;29;20028;-62
2022/08/29 05:29:17;;;;;;;7.15;2.88;;;13.40;93.30;;;;;;4894661;29;20362;-69
2022/08/29 05:31:42;;;;;;;5.63;2.58;;;13.40;93.30;;;;;;4894538;29;20496;-69
2022/08/29 05:34:12;;;;;;;4.60;2.42;;;13.40;93.20;;;;;;4894205;29;20025;-69
2022/08/29 05:36:38;;;;;;;8.52;2.78;;;13.40;93.10;;;;;;4895085;29;20033;-69
2022/08/29 05:39:04;;;;;;;8.27;3.25;;;13.50;93.00;;;;;;4895245;29;20458;-68
2022/08/29 05:41:30;;;;;;;6.05;2.38;;;13.60;93.00;;;;;;4895660;29;20386;-67
2022/08/29 05:43:56;;;;;;;5.55;2.70;;;13.60;92.90;;;;;;4896439;29;20020;-67
2022/08/29 05:46:22;;;;;;;5.70;2.60;;;13.70;92.90;;;;;;4895243;29;20056;-69
2022/08/29 05:48:47;;;;;;;7.45;3.15;;;13.70;92.90;;;;;;4894727;29;20032;-69
2022/08/29 05:51:15;;;;;;;6.90;2.92;;;13.70;93.00;;;;;;4896022;29;20033;-69
2022/08/29 05:53:41;;;;;;;5.78;2.83;;;13.60;92.70;;;;;;4895199;29;20075;-69
2022/08/29 05:56:06;;;;;;;6.00;3.00;;;13.70;92.60;;;;;;4896038;29;20482;-69
2022/08/29 05:58:32;;;;;;;7.40;3.03;;;13.70;92.80;;;;;;4895848;29;20028;-63
2022/08/29 06:00:57;;;;;;;7.63;3.20;;;13.80;92.50;;;;;;4891790;29;20104;-62
2022/08/29 06:03:23;;;;;;;7.13;2.80;;;13.80;92.50;;;;;;4895700;29;20104;-62
2022/08/29 06:05:50;;;;;;;5.40;2.90;;;13.80;92.50;;;;;;4895863;29;20047;-62
2022/08/29 06:08:16;;;;;;;7.13;3.20;;;13.80;92.50;;;;;;4891721;29;20097;-69
2022/08/29 06:10:44;;;;;;;7.03;3.20;;;13.80;92.60;;;;;;4886955;29;20035;-63
2022/08/29 06:13:11;;;;;;;7.43;3.15;;;13.90;92.70;;;;;;4899383;29;20381;-68
2022/08/29 06:15:36;;;;;;;6.88;2.92;;;13.90;92.60;;;;;;4899397;29;20052;-68
2022/08/29 06:18:03;;;;;;;7.70;3.65;;;14.10;92.50;;;;;;4899687;29;20067;-66
2022/08/29 06:20:29;;;;;;;7.72;2.70;;;14.20;92.30;;;;;;4911004;29;20031;-63
2022/08/29 06:22:54;;;;;;;7.30;3.10;;;14.30;92.20;;;;;;4918464;29;20032;-63
2022/08/29 06:25:20;;;;;;;7.57;3.45;;;14.40;92.00;;;;;;4918728;29;20092;-62
2022/08/29 06:27:46;;;;;;;7.03;2.85;;;14.50;91.90;;;;;;4901778;29;20084;-67
2022/08/29 06:30:12;;;;;;;7.53;3.17;;;14.60;91.90;;;;;;4898009;29;20043;-64
2022/08/29 06:32:38;;;;;;;7.28;2.95;;;14.70;91.60;;;;;;4898833;29;20504;-62
2022/08/29 06:35:04;;;;;;;7.60;3.00;;;14.80;91.40;;;;;;4898625;29;20028;-64
2022/08/29 06:37:30;;;;;;;10.18;3.28;;;14.90;91.30;;;;;;4897749;29;20040;-65
2022/08/29 06:39:55;;;;;;;5.82;3.03;;;15.10;91.00;;;;;;4898955;29;20028;-63
2022/08/29 06:42:23;;;;;;;9.30;3.42;;;15.20;90.80;;;;;;4913133;29;20159;-64
2022/08/29 06:44:49;;;;;;;5.90;3.05;;;15.30;90.60;;;;;;4897144;29;20033;-62
2022/08/29 06:47:15;;;;;;;5.85;3.00;;;15.30;90.40;;;;;;4898845;29;20039;-63
2022/08/29 06:49:40;;;;;;;8.07;3.03;;;15.50;90.30;;;;;;4898028;29;20497;-66
2022/08/29 06:52:06;;;;;;;6.45;2.65;;;15.70;89.80;;;;;;4897376;29;20040;-63
2022/08/29 06:54:31;;;;;;;8.63;3.20;;;15.80;89.30;;;;;;4898334;29;20470;-65
2022/08/29 06:56:58;;;;;;;5.72;2.80;;;16.00;88.60;;;;;;4898157;29;20031;-67
2022/08/29 06:59:24;;;;;;;8.93;2.83;;;16.10;88.30;;;;;;4898729;29;20434;-63
2022/08/29 07:01:50;;;;;;;7.10;2.72;;;16.20;87.90;;;;;;4911334;29;20035;-64
2022/08/29 07:04:16;;;;;;;6.60;2.70;;;16.30;87.60;;;;;;4891554;29;20417;-62
2022/08/29 07:06:42;;;;;;;5.82;2.60;;;16.50;87.00;;;;;;4895776;29;20405;-68
2022/08/29 07:09:08;;;;;;;9.57;2.92;;;16.50;86.50;;;;;;4896744;29;20071;-66
2022/08/29 07:11:36;;;;;;;6.97;3.13;;;16.70;86.10;;;;;;4886772;29;20506;-65
2022/08/29 07:14:03;;;;;;;6.30;2.85;;;16.80;85.60;;;;;;4890102;29;20024;-66
2022/08/29 07:16:31;;;;;;;6.30;2.50;;;16.90;84.80;;;;;;4893354;29;20035;-66
2022/08/29 07:18:56;;;;;;;4.80;2.40;;;17.10;85.00;;;;;;4897067;29;20032;-67
2022/08/29 07:21:25;;;;;;;6.82;2.55;;;17.20;83.60;;;;;;4895162;29;20083;-66
2022/08/29 07:23:52;;;;;;;7.22;2.35;;;17.20;82.40;;;;;;4895617;29;20091;-66
2022/08/29 07:26:41;;;;;;;5.85;2.80;;;17.30;82.50;;;;;;4895334;29;20558;-66
2022/08/29 07:29:14;;;;;;;7.05;2.35;;;17.40;82.00;;;;;;4878416;29;20355;-64
2022/08/29 07:31:40;;;;;;;5.95;2.10;;;17.50;81.20;;;;;;4884734;29;20035;-63
2022/08/29 07:34:06;;;;;;;5.65;2.45;;;17.60;80.90;;;;;;4896602;29;20033;-69
2022/08/29 07:36:32;;;;;;;5.15;2.25;;;17.60;80.30;;;;;;4895268;29;20029;-76
2022/08/29 07:38:59;;;;;;;6.20;2.55;;;17.70;79.80;;;;;;4894816;29;20036;-70
2022/08/29 07:41:24;;;;;;;10.80;2.22;;;17.80;79.10;;;;;;4895448;29;20040;-68
2022/08/29 07:43:50;;;;;;;6.13;2.20;;;17.80;78.70;;;;;;4896234;29;20021;-71
2022/08/29 07:46:18;;;;;;;6.72;2.72;;;17.80;78.30;;;;;;4893572;29;20520;-70
2022/08/29 07:48:44;;;;;;;6.32;2.45;;;17.90;78.50;;;;;;4896264;29;20024;-72
2022/08/29 07:51:14;;;;;;;4.85;2.50;;;18.10;78.40;;;;;;4887263;29;20021;-74
2022/08/29 07:53:40;;;;;;;4.28;2.17;;;18.20;77.30;;;;;;4892832;29;20068;-77
2022/08/29 07:56:07;;;;;;;7.60;2.40;;;18.30;77.20;;;;;;4894777;29;20068;-72
2022/08/29 07:58:33;;;;;;;7.32;2.65;;;18.40;77.20;;;;;;4894364;29;20115;-72
2022/08/29 08:00:58;;;;;;;3.88;1.80;;;18.40;77.10;;;;;;4894634;29;20108;-74
2022/08/29 08:03:25;;;;;;;6.93;2.20;;;18.50;77.20;;;;;;4895791;29;20103;-76
2022/08/29 08:05:52;;;;;;;6.55;2.20;;;18.50;77.40;;;;;;4894191;29;20051;-74
2022/08/29 08:08:18;;;;;;;5.45;2.28;;;18.60;77.50;;;;;;4895568;29;20028;-69
2022/08/29 08:10:43;;;;;;;4.20;1.95;;;18.60;77.60;;;;;;4895743;29;20044;-70
2022/08/29 08:13:09;;;;;;;4.95;2.13;;;18.70;77.40;;;;;;4894862;29;20466;-65
2022/08/29 08:15:37;;;;;;;7.13;2.25;;;18.80;77.70;;;;;;4895089;29;20046;-64
2022/08/29 08:18:03;;;;;;;5.60;2.10;;;18.80;77.90;;;;;;4895393;29;20032;-65
2022/08/29 08:20:29;;;;;;;4.47;1.90;;;18.90;77.90;;;;;;4894927;29;20359;-67
2022/08/29 08:22:55;;;;;;;6.28;2.33;;;18.90;77.90;;;;;;4895711;29;20024;-70
2022/08/29 08:25:22;;;;;;;6.22;1.90;;;19.00;78.20;;;;;;4895365;29;20033;-65
2022/08/29 08:27:48;;;;;;;4.30;1.90;;;19.10;78.30;;;;;;4894239;29;20068;-71
2022/08/29 08:30:14;;;;;;;4.85;2.45;;;19.10;78.30;;;;;;4895779;29;20020;-66
2022/08/29 08:32:40;;;;;;;6.13;1.98;;;19.20;78.60;;;;;;4908117;29;20092;-72
2022/08/29 08:35:06;;;;;;;6.03;2.00;;;19.30;78.40;;;;;;4892672;29;20077;-70
2022/08/29 08:37:32;;;;;;;5.80;2.00;;;19.50;77.70;;;;;;4895134;29;20104;-69
2022/08/29 08:39:58;;;;;;;7.18;1.92;;;19.50;77.40;;;;;;4893750;29;20131;-64
2022/08/29 08:42:31;;;;;;;4.90;2.25;;;19.50;77.40;;;;;;4895308;29;20379;-65
2022/08/29 08:45:13;;;;;;;4.60;1.95;;;19.50;77.10;;;;;;4895051;29;20100;-62
2022/08/29 08:47:51;;;;;;;6.43;2.72;;;19.60;77.20;;;;;;4890959;29;20029;-67
2022/08/29 08:50:25;;;;;;;8.27;2.22;;;19.60;77.00;;;;;;4879214;29;20024;-64
2022/08/29 08:53:05;;;;;;;7.15;2.20;;;19.60;77.50;;;;;;4909487;29;20115;-64
2022/08/29 08:55:41;;;;;;;7.22;2.50;;;19.60;78.70;;;;;;4893655;29;20035;-67
2022/08/29 08:58:13;;;;;;;4.75;1.88;;;19.70;77.10;;;;;;4895434;29;20104;-70
2022/08/29 09:00:46;;;;;;;7.00;1.88;;;19.60;77.40;;;;;;4894804;29;20028;-76
2022/08/29 09:03:24;;;;;;;6.28;2.10;;;19.70;77.50;;;;;;4907763;29;20375;-71
2022/08/29 09:06:05;;;;;;;6.10;2.05;;;19.70;77.20;;;;;;4896562;29;20112;-63
2022/08/29 09:08:52;;;;;;;4.13;1.70;;;19.90;77.10;;;;;;4913238;29;20048;-67
2022/08/29 09:11:28;;;;;;;5.20;1.85;;;20.00;75.80;;;;;;4913599;29;20034;-67
2022/08/29 09:14:32;;;;;;;3.95;1.63;;;20.00;74.30;;;;;;4913646;29;20112;-69
2022/08/29 09:17:00;;;;;;;6.80;2.17;;;20.00;74.40;;;;;;4910189;29;20040;-64
2022/08/29 09:19:25;;;;;;;6.10;1.90;;;20.10;74.40;;;;;;4894603;29;20047;-72
2022/08/29 09:22:05;;;;;;;3.58;1.92;;;20.20;74.10;;;;;;4894382;29;20029;-66
2022/08/29 09:24:39;;;;;;;4.30;2.13;;;20.30;73.50;;;;;;4892543;29;20036;-68
2022/08/29 09:27:05;;;;;;;3.75;1.63;;;20.30;74.20;;;;;;4894519;29;20486;-74
2022/08/29 09:29:31;;;;;;;8.05;2.40;;;20.40;74.30;;;;;;4893074;29;20120;-73
2022/08/29 09:32:11;;;;;;;3.58;1.50;;;20.40;74.10;;;;;;4894341;29;20027;-63
2022/08/29 09:34:40;;;;;;;3.47;1.90;;;20.50;74.10;;;;;;4893627;29;20043;-66
2022/08/29 09:37:30;;;;;;;3.80;1.65;;;20.50;74.60;;;;;;4908660;29;20406;-63
2022/08/29 09:40:09;;;;;;;4.15;1.75;;;20.50;74.20;;;;;;4893373;29;20028;-70
2022/08/29 09:42:42;;;;;;;4.90;1.75;;;20.50;74.40;;;;;;4894770;29;20067;-65
2022/08/29 09:45:24;;;;;;;6.30;2.10;;;20.70;74.10;;;;;;4896422;29;20047;-76
2022/08/29 09:48:07;;;;;;;5.10;2.05;;;20.90;73.60;;;;;;4910936;29;20082;-67
2022/08/29 09:50:33;;;;;;;3.33;1.70;;;21.00;73.50;;;;;;4896563;29;20135;-73
2022/08/29 09:53:01;;;;;;;5.32;1.40;;;21.20;72.80;;;;;;4897877;29;20113;-74
2022/08/29 09:55:26;;;;;;;5.53;2.05;;;21.30;72.40;;;;;;4897667;29;20044;-62
2022/08/29 09:57:59;;;;;;;5.40;2.15;;;21.40;71.30;;;;;;4898798;29;20025;-64
2022/08/29 10:00:30;;;;;;;4.95;1.80;;;21.50;70.80;;;;;;4898209;29;20032;-63
2022/08/29 10:03:00;;;;;;;3.80;1.75;;;21.50;70.60;;;;;;4898617;29;20062;-81
2022/08/29 10:05:49;;;;;;;6.45;1.88;;;21.50;70.60;;;;;;4897031;29;20032;-79
2022/08/29 10:08:34;;;;;;;4.78;2.17;;;21.60;70.30;;;;;;4897953;29;20081;-82
2022/08/29 10:11:03;;;;;;;5.07;2.00;;;21.50;69.70;;;;;;4897714;29;20043;-82
2022/08/29 10:13:52;;;;;;;4.95;2.38;;;21.50;70.70;;;;;;4912076;29;20068;-77
2022/08/29 10:16:47;;;;;;;4.63;2.00;;;21.60;70.60;;;;;;4898074;29;20032;-78
2022/08/29 10:19:26;;;;;;;5.32;2.10;;;21.60;70.40;;;;;;4910536;29;20059;-76
2022/08/29 10:22:12;;;;;;;4.18;1.60;;;21.50;70.20;;;;;;4897868;29;20088;-64
2022/08/29 10:25:03;;;;;;;5.72;1.98;;;21.40;69.70;;;;;;4896611;29;20036;-69
2022/08/29 10:27:48;;;;;;;2.40;1.63;;;21.30;69.70;;;;;;4896886;29;20120;-62
2022/08/29 10:30:21;;;;;;;6.03;2.22;;;21.20;69.80;;;;;;4897402;29;20120;-68
2022/08/29 10:33:09;;;;;;;5.57;2.15;;;21.10;69.70;;;;;;4895394;29;20033;-67
2022/08/29 10:35:38;;;;;;;3.60;1.85;;;21.10;70.00;;;;;;4884486;29;20032;-68
2022/08/29 10:38:11;;;;;;;3.85;1.60;;;21.20;69.40;;;;;;4911163;29;20040;-63
2022/08/29 10:40:50;;;;;;;4.85;1.67;;;21.20;68.80;;;;;;4896492;29;20079;-71
2022/08/29 10:43:24;;;;;;;5.60;2.15;;;21.20;68.60;;;;;;4897103;29;20028;-71
2022/08/29 10:46:11;;;;;;;4.47;2.30;;;21.40;69.20;;;;;;4879766;29;20043;-63
2022/08/29 10:48:58;;;;;;;3.33;1.60;;;21.60;68.20;;;;;;4898790;29;20032;-66
2022/08/29 10:51:40;;;;;;;2.65;1.35;;;21.80;68.10;;;;;;4896494;29;20025;-62
2022/08/29 10:54:41;;;;;;;4.35;2.00;;;22.00;67.80;;;;;;4881273;29;20028;-61
2022/08/29 10:57:08;;;;;;;3.88;1.70;;;22.20;67.30;;;;;;4892476;29;20097;-68
2022/08/29 11:00:12;;;;;;;3.88;1.90;;;22.30;67.30;;;;;;4896040;29;20037;-63
2022/08/29 11:02:59;;;;;;;6.03;2.20;;;22.40;66.50;;;;;;4883289;29;20040;-67
2022/08/29 11:05:34;;;;;;;4.25;1.80;;;22.40;66.40;;;;;;4896291;29;20040;-74
2022/08/29 11:08:08;;;;;;;7.38;2.75;;;22.30;66.20;;;;;;4892720;29;20117;-67
2022/08/29 11:10:42;;;;;;;5.28;2.40;;;22.20;67.10;;;;;;4895267;29;20044;-74
2022/08/29 11:13:37;;;;;;;4.13;2.10;;;22.30;67.00;;;;;;4896077;29;20036;-60
2022/08/29 11:16:02;;;;;;;3.95;1.70;;;22.30;66.80;;;;;;4876338;29;20025;-62
2022/08/29 11:18:51;;;;;;;4.57;1.58;;;22.40;66.00;;;;;;4877525;29;20037;-60
2022/08/29 11:21:39;;;;;;;3.63;1.50;;;22.50;66.30;;;;;;4877568;29;20033;-68
2022/08/29 11:24:05;;;;;;;3.97;1.50;;;22.80;64.90;;;;;;4886591;29;20104;-65
2022/08/29 11:26:57;;;;;;;5.18;1.90;;;22.90;64.20;;;;;;4895659;29;20116;-61
2022/08/29 11:29:33;;;;;;;3.75;1.55;;;22.90;63.80;;;;;;4896268;29;20021;-66
2022/08/29 11:32:06;;;;;;;3.67;1.67;;;22.80;64.80;;;;;;4896818;29;20033;-67
2022/08/29 11:35:03;;;;;;;3.40;2.42;;;22.80;64.20;;;;;;4894331;29;20063;-67
2022/08/29 11:37:46;;;;;;;4.13;1.60;;;22.70;64.60;;;;;;4896106;29;20040;-62
2022/08/29 11:40:49;;;;;;;3.72;1.60;;;22.70;64.90;;;;;;4896270;29;20036;-69
2022/08/29 11:43:23;;;;;;;3.35;1.67;;;22.60;64.90;;;;;;4877127;29;20021;-70
2022/08/29 11:45:58;;;;;;;3.15;1.45;;;22.70;64.80;;;;;;4883579;29;20445;-68
2022/08/29 11:48:38;;;;;;;3.53;1.45;;;22.90;64.50;;;;;;4910689;29;20485;-64
2022/08/29 11:51:53;;;;;;;4.18;2.00;;;23.20;63.80;;;;;;4895416;29;20060;-74
2022/08/29 11:54:27;;;;;;;3.00;1.73;;;23.50;62.40;;;;;;4891889;29;20041;-64
2022/08/29 11:56:58;;;;;;;3.60;1.55;;;23.40;62.10;;;;;;4895640;29;20033;-76
2022/08/29 11:59:47;;;;;;;5.07;1.98;;;23.30;62.70;;;;;;4893389;29;20031;-60
2022/08/29 12:02:30;;;;;;;3.17;1.70;;;23.10;62.30;;;;;;4894960;29;20119;-72
2022/08/29 12:05:04;;;;;;;7.05;2.35;;;22.90;63.50;;;;;;4909275;29;20045;-67
2022/08/29 12:07:57;;;;;;;3.42;1.75;;;23.00;63.40;;;;;;4895199;29;20104;-64
2022/08/29 12:10:33;;;;;;;7.30;2.00;;;23.10;63.10;;;;;;4894316;29;20055;-71
2022/08/29 12:13:04;;;;;;;4.53;1.95;;;23.30;62.80;;;;;;4894454;29;20039;-72
2022/08/29 12:15:34;;;;;;;5.78;1.98;;;23.40;62.50;;;;;;4894173;29;20024;-60
2022/08/29 12:18:11;;;;;;;5.82;2.08;;;23.50;62.20;;;;;;4895743;29;20135;-63
2022/08/29 12:20:39;;;;;;;2.97;1.65;;;23.60;60.20;;;;;;4895539;29;20033;-70
2022/08/29 12:23:11;;;;;;;3.10;1.70;;;23.60;60.60;;;;;;4894890;29;20025;-62
2022/08/29 12:25:52;;;;;;;3.58;1.58;;;23.50;60.50;;;;;;4894302;29;20453;-74
2022/08/29 12:28:25;;;;;;;5.00;2.33;;;23.70;61.00;;;;;;4895476;29;20048;-83
2022/08/29 12:30:57;;;;;;;3.88;1.75;;;23.90;60.50;;;;;;4895016;29;20397;-75
2022/08/29 12:33:43;;;;;;;4.25;1.80;;;24.00;60.10;;;;;;4895056;29;20049;-61
2022/08/29 12:36:23;;;;;;;5.03;1.65;;;24.00;60.10;;;;;;4894531;29;20111;-60
2022/08/29 12:39:20;;;;;;;7.35;2.10;;;24.00;58.60;;;;;;4894696;29;20068;-64
2022/08/29 12:42:26;;;;;;;5.80;1.88;;;24.00;59.00;;;;;;4908760;29;20020;-66
2022/08/29 12:45:01;;;;;;;4.63;1.90;;;24.10;58.20;;;;;;4894592;29;20088;-66
2022/08/29 12:47:32;;;;;;;7.85;2.63;;;23.90;58.70;;;;;;4894403;29;20032;-60
2022/08/29 12:50:12;;;;;;;3.28;1.75;;;23.90;59.30;;;;;;4895144;29;20093;-69
2022/08/29 12:52:37;;;;;;;2.60;1.60;;;24.00;58.90;;;;;;4909004;29;20073;-61
2022/08/29 12:55:26;;;;;;;5.13;1.48;;;24.00;57.50;;;;;;4893836;29;20101;-61
2022/08/29 12:57:52;;;;;;;3.08;1.38;;;24.00;58.20;;;;;;4895144;29;20037;-64
2022/08/29 13:00:22;;;;;;;4.60;1.90;;;24.00;56.10;;;;;;4894547;29;20111;-60
2022/08/29 13:03:08;;;;;;;2.70;1.60;;;24.00;57.40;;;;;;4895261;29;20025;-61
2022/08/29 13:05:36;;;;;;;4.47;1.50;;;23.80;58.50;;;;;;4894486;29;20079;-64
2022/08/29 13:08:09;;;;;;;5.95;2.00;;;23.80;59.10;;;;;;4894357;29;20028;-66